createdAt,value
2019-03-20T00:02:01.408Z,9.77
2019-03-20T00:04:29.144Z,9.74
2019-03-20T00:06:56.926Z,9.74
2019-03-20T00:09:24.745Z,9.82
2019-03-20T00:11:52.445Z,9.78
2019-03-20T00:14:20.170Z,9.60
2019-03-20T00:16:47.889Z,9.54
2019-03-20T00:19:15.747Z,9.59
2019-03-20T00:21:43.514Z,9.45
2019-03-20T00:24:11.222Z,9.57
2019-03-20T00:26:39.084Z,9.62
2019-03-20T00:29:06.801Z,9.50
2019-03-20T00:31:34.534Z,9.58
2019-03-20T00:34:02.254Z,9.58
2019-03-20T00:36:29.990Z,9.56
2019-03-20T00:38:57.775Z,9.42
2019-03-20T00:41:25.549Z,9.34
2019-03-20T00:43:53.246Z,9.49
2019-03-20T00:46:20.955Z,9.40
2019-03-20T00:48:48.671Z,9.26
2019-03-20T00:51:16.415Z,9.28
2019-03-20T00:53:44.186Z,9.28
2019-03-20T00:56:11.945Z,9.32
2019-03-20T01:14:00.948Z,9.01
2019-03-20T01:16:28.811Z,9.01
2019-03-20T01:18:56.570Z,9.04
2019-03-20T01:21:24.305Z,9.06
2019-03-20T01:23:52.097Z,8.93
2019-03-20T01:26:19.865Z,8.74
2019-03-20T01:28:47.632Z,8.69
2019-03-20T01:31:15.467Z,8.84
2019-03-20T01:33:43.264Z,8.62
2019-03-20T01:36:10.964Z,8.91
2019-03-20T01:38:38.814Z,8.85
2019-03-20T01:41:06.566Z,8.67
2019-03-20T01:43:34.345Z,8.66
2019-03-20T01:46:02.101Z,8.68
2019-03-20T01:48:29.846Z,8.76
2019-03-20T01:50:57.546Z,8.60
2019-03-20T01:53:25.274Z,8.55
2019-03-20T01:55:53.110Z,8.62
2019-03-20T01:58:20.954Z,8.48
2019-03-20T02:00:48.666Z,8.51
2019-03-20T02:03:16.500Z,8.45
2019-03-20T02:05:44.229Z,8.61
2019-03-20T02:08:12.118Z,8.57
2019-03-20T02:10:39.854Z,8.67
2019-03-20T02:13:07.571Z,8.33
2019-03-20T02:15:39.368Z,8.55
2019-03-20T02:18:04.760Z,8.47
2019-03-20T02:20:32.576Z,8.43
2019-03-20T02:23:00.325Z,8.38
2019-03-20T02:25:28.103Z,8.39
2019-03-20T02:27:55.807Z,8.27
2019-03-20T02:30:23.521Z,8.36
2019-03-20T02:32:51.245Z,8.27
2019-03-20T02:35:19.064Z,8.16
2019-03-20T02:37:46.834Z,8.09
2019-03-20T02:40:14.633Z,7.91
2019-03-20T02:42:42.379Z,7.81
2019-03-20T02:45:10.147Z,8.03
2019-03-20T02:47:37.945Z,7.62
2019-03-20T02:50:05.754Z,7.70
2019-03-20T02:52:33.474Z,7.76
2019-03-20T02:55:01.230Z,7.63
2019-03-20T02:57:28.983Z,7.57
2019-03-20T02:59:56.843Z,7.39
2019-03-20T03:02:24.570Z,7.47
2019-03-20T03:04:52.365Z,7.66
2019-03-20T03:07:20.125Z,7.49
2019-03-20T03:09:48.147Z,7.32
2019-03-20T03:12:15.873Z,7.28
2019-03-20T03:14:43.636Z,7.28
2019-03-20T03:17:11.368Z,7.17
2019-03-20T03:19:39.289Z,7.17
2019-03-20T03:22:07.007Z,7.06
2019-03-20T03:24:34.737Z,7.02
2019-03-20T03:27:02.460Z,7.10
2019-03-20T03:29:30.233Z,7.05
2019-03-20T03:31:57.947Z,7.24
2019-03-20T03:34:25.665Z,6.95
2019-03-20T03:36:53.396Z,6.85
2019-03-20T03:39:21.191Z,7.06
2019-03-20T03:41:48.924Z,6.85
2019-03-20T03:44:16.728Z,6.85
2019-03-20T03:46:44.517Z,6.82
2019-03-20T03:49:12.365Z,6.78
2019-03-20T03:51:40.138Z,6.79
2019-03-20T03:54:07.842Z,6.68
2019-03-20T03:56:35.669Z,6.76
2019-03-20T03:59:03.415Z,6.79
2019-03-20T04:01:31.285Z,6.92
2019-03-20T04:03:59.088Z,6.75
2019-03-20T04:06:35.530Z,6.79
2019-03-20T04:08:56.460Z,6.79
2019-03-20T04:11:24.232Z,6.80
2019-03-20T04:13:51.961Z,6.70
2019-03-20T04:16:19.751Z,6.49
2019-03-20T04:18:47.568Z,6.49
2019-03-20T04:21:15.363Z,6.46
2019-03-20T04:23:43.075Z,6.54
2019-03-20T04:26:10.810Z,6.54
2019-03-20T04:28:38.576Z,6.62
2019-03-20T04:31:06.316Z,6.68
2019-03-20T04:33:34.106Z,6.54
2019-03-20T04:36:01.888Z,6.53
2019-03-20T04:38:29.602Z,6.75
2019-03-20T04:40:57.335Z,6.51
2019-03-20T04:43:25.169Z,6.56
2019-03-20T04:45:52.972Z,6.65
2019-03-20T04:48:20.808Z,6.61
2019-03-20T04:50:48.573Z,6.46
2019-03-20T04:53:16.342Z,6.37
2019-03-20T04:55:44.230Z,6.51
2019-03-20T04:58:12.097Z,6.52
2019-03-20T05:00:39.814Z,6.54
2019-03-20T05:03:07.654Z,6.74
2019-03-20T05:05:35.473Z,6.69
2019-03-20T05:08:03.249Z,6.49
2019-03-20T05:10:30.962Z,6.83
2019-03-20T05:12:58.787Z,6.63
2019-03-20T05:15:26.541Z,6.71
2019-03-20T05:17:54.316Z,7.03
2019-03-20T05:20:22.075Z,6.78
2019-03-20T05:22:49.842Z,6.51
2019-03-20T05:25:17.735Z,6.47
2019-03-20T05:27:45.617Z,6.51
2019-03-20T05:30:13.346Z,6.58
2019-03-20T05:32:41.043Z,6.68
2019-03-20T05:35:08.917Z,6.56
2019-03-20T05:37:36.657Z,6.56
2019-03-20T05:40:04.660Z,6.61
2019-03-20T05:42:32.481Z,6.77
2019-03-20T05:45:00.383Z,6.92
2019-03-20T05:47:28.435Z,6.88
2019-03-20T05:49:56.199Z,6.73
2019-03-20T05:52:24.028Z,6.62
2019-03-20T05:54:52.049Z,6.67
2019-03-20T05:57:19.803Z,6.86
2019-03-20T05:59:47.535Z,6.93
2019-03-20T06:02:15.334Z,7.01
2019-03-20T06:04:43.141Z,6.62
2019-03-20T06:07:21.062Z,6.59
2019-03-20T06:09:40.447Z,6.71
2019-03-20T06:12:08.268Z,6.84
2019-03-20T06:14:36.022Z,6.94
2019-03-20T06:17:03.784Z,6.95
2019-03-20T06:19:31.538Z,6.94
2019-03-20T06:21:59.311Z,6.96
2019-03-20T06:24:27.069Z,7.03
2019-03-20T06:26:54.863Z,7.07
2019-03-20T06:29:22.598Z,7.24
2019-03-20T06:31:50.612Z,7.47
2019-03-20T06:34:18.345Z,7.36
2019-03-20T06:36:46.153Z,7.41
2019-03-20T06:39:13.895Z,7.55
2019-03-20T06:41:41.760Z,7.63
2019-03-20T06:44:09.737Z,7.68
2019-03-20T06:46:37.567Z,7.99
2019-03-20T06:49:07.758Z,8.00
2019-03-20T06:51:34.904Z,7.75
2019-03-20T06:54:02.731Z,8.10
2019-03-20T06:56:30.539Z,8.29
2019-03-20T06:58:58.272Z,8.55
2019-03-20T07:01:26.089Z,8.37
2019-03-20T07:03:53.840Z,8.41
2019-03-20T07:06:21.677Z,8.31
2019-03-20T07:08:49.470Z,8.09
2019-03-20T07:11:18.433Z,8.24
2019-03-20T07:13:46.149Z,8.47
2019-03-20T07:16:13.960Z,8.46
2019-03-20T07:18:41.845Z,8.45
2019-03-20T07:21:09.625Z,8.77
2019-03-20T07:23:37.364Z,8.96
2019-03-20T07:26:05.241Z,9.23
2019-03-20T07:28:32.940Z,9.14
2019-03-20T07:31:01.120Z,9.29
2019-03-20T07:33:28.820Z,9.35
2019-03-20T07:35:59.671Z,9.37
2019-03-20T07:38:27.474Z,9.84
2019-03-20T07:40:55.244Z,10.28
2019-03-20T07:43:23.072Z,10.13
2019-03-20T07:45:50.852Z,10.03
2019-03-20T07:48:22.288Z,10.22
2019-03-20T07:50:48.128Z,10.23
2019-03-20T07:53:15.959Z,10.44
2019-03-20T07:55:43.755Z,11.01
2019-03-20T07:58:11.564Z,11.30
2019-03-20T08:00:39.283Z,11.05
2019-03-20T08:03:07.086Z,10.88
2019-03-20T08:05:35.486Z,10.89
2019-03-20T08:08:07.439Z,11.05
2019-03-20T08:10:33.395Z,11.36
2019-03-20T08:13:01.190Z,11.97
2019-03-20T08:15:28.967Z,11.84
2019-03-20T08:17:56.738Z,11.82
2019-03-20T08:20:24.684Z,11.54
2019-03-20T08:22:52.498Z,11.68
2019-03-20T08:25:20.210Z,12.27
2019-03-20T08:27:48.187Z,13.05
2019-03-20T08:30:16.003Z,13.30
2019-03-20T08:32:43.771Z,13.59
2019-03-20T08:35:11.715Z,13.98
2019-03-20T08:37:39.514Z,13.56
2019-03-20T08:40:07.280Z,12.93
2019-03-20T08:45:20.926Z,12.96
2019-03-20T08:50:34.377Z,13.89
2019-03-20T08:53:02.105Z,14.01
2019-03-20T08:55:29.934Z,14.61
2019-03-20T08:57:57.976Z,14.91
2019-03-20T09:00:25.827Z,14.82
2019-03-20T09:02:53.603Z,15.23
2019-03-20T09:05:21.673Z,15.38
2019-03-20T09:07:49.436Z,15.12
2019-03-20T09:10:17.203Z,15.81
2019-03-20T09:12:50.809Z,15.67
2019-03-20T09:15:18.541Z,16.02
2019-03-20T09:17:46.525Z,16.17
2019-03-20T09:20:14.511Z,15.95
2019-03-20T09:22:42.377Z,15.79
2019-03-20T09:25:10.133Z,15.68
2019-03-20T09:27:37.948Z,14.84
2019-03-20T09:30:05.894Z,15.57
2019-03-20T09:32:33.681Z,15.88
2019-03-20T09:35:01.537Z,16.45
2019-03-20T09:37:29.294Z,16.64
2019-03-20T09:39:57.160Z,17.14
2019-03-20T09:42:24.839Z,17.24
2019-03-20T09:44:52.396Z,17.63
2019-03-20T09:47:19.820Z,17.50
2019-03-20T09:49:47.620Z,17.42
2019-03-20T09:52:15.509Z,17.74
2019-03-20T09:54:43.369Z,18.04
2019-03-20T09:57:11.437Z,18.02
2019-03-20T09:59:39.742Z,18.05
2019-03-20T10:02:07.476Z,18.05
2019-03-20T10:04:35.325Z,18.37
2019-03-20T10:07:03.069Z,18.66
2019-03-20T10:09:30.930Z,19.03
2019-03-20T10:11:58.854Z,19.05
2019-03-20T10:14:26.727Z,19.69
2019-03-20T10:16:54.475Z,19.81
2019-03-20T10:19:22.383Z,19.80
2019-03-20T10:21:50.334Z,19.46
2019-03-20T10:24:18.205Z,19.91
2019-03-20T10:26:46.569Z,20.26
2019-03-20T10:29:14.344Z,20.55
2019-03-20T10:31:41.892Z,20.98
2019-03-20T10:34:09.457Z,20.24
2019-03-20T10:36:37.002Z,20.32
2019-03-20T10:39:06.663Z,20.91
2019-03-20T10:41:33.803Z,19.81
2019-03-20T10:44:01.319Z,20.17
2019-03-20T10:46:28.720Z,20.21
2019-03-20T10:48:56.549Z,20.62
2019-03-20T10:51:24.118Z,20.26
2019-03-20T10:53:51.586Z,20.61
2019-03-20T10:56:19.160Z,21.12
2019-03-20T10:58:46.696Z,21.63
2019-03-20T11:01:14.268Z,22.24
2019-03-20T11:03:41.761Z,22.76
2019-03-20T11:06:09.293Z,22.97
2019-03-20T11:08:36.873Z,23.34
2019-03-20T11:11:04.342Z,23.40
2019-03-20T11:13:31.868Z,23.45
2019-03-20T11:15:59.300Z,23.63
2019-03-20T11:18:26.781Z,24.11
2019-03-20T11:20:54.357Z,24.43
2019-03-20T11:23:21.809Z,24.30
2019-03-20T11:25:49.372Z,23.81
2019-03-20T11:28:16.843Z,24.20
2019-03-20T11:30:44.517Z,23.94
2019-03-20T11:33:12.087Z,23.60
2019-03-20T11:35:42.353Z,23.66
2019-03-20T11:38:08.834Z,23.94
2019-03-20T11:40:36.357Z,24.23
2019-03-20T11:43:04.284Z,24.04
2019-03-20T11:45:32.219Z,24.37
2019-03-20T11:48:00.115Z,24.01
2019-03-20T11:50:27.962Z,24.27
2019-03-20T11:52:55.827Z,23.92
2019-03-20T11:55:23.574Z,24.27
2019-03-20T11:57:51.600Z,24.44
2019-03-20T12:00:19.299Z,24.65
2019-03-20T12:02:47.132Z,24.97
2019-03-20T12:05:14.963Z,24.65
2019-03-20T12:07:42.639Z,24.59
2019-03-20T12:10:10.371Z,24.96
2019-03-20T12:12:38.237Z,24.80
2019-03-20T12:15:06.036Z,24.82
2019-03-20T12:17:33.642Z,24.49
2019-03-20T12:20:01.366Z,24.77
2019-03-20T12:22:28.885Z,25.19
2019-03-20T12:24:56.405Z,25.51
2019-03-20T12:27:23.877Z,24.92
2019-03-20T12:29:51.393Z,24.88
2019-03-20T12:32:18.834Z,24.63
2019-03-20T12:34:46.457Z,24.75
2019-03-20T12:37:13.999Z,25.03
2019-03-20T12:39:52.606Z,25.18
2019-03-20T12:42:10.849Z,25.34
2019-03-20T12:44:38.432Z,24.41
2019-03-20T12:47:05.988Z,25.13
2019-03-20T12:49:33.633Z,25.42
2019-03-20T12:52:01.061Z,25.84
2019-03-20T12:54:28.550Z,25.97
2019-03-20T12:56:56.106Z,26.26
2019-03-20T12:59:23.706Z,26.43
2019-03-20T13:01:51.246Z,26.19
2019-03-20T13:04:18.848Z,25.21
2019-03-20T13:06:46.681Z,25.88
2019-03-20T13:09:14.337Z,25.99
2019-03-20T13:11:41.924Z,26.02
2019-03-20T13:14:09.459Z,26.17
2019-03-20T13:16:37.223Z,26.84
2019-03-20T13:19:04.766Z,26.44
2019-03-20T13:21:32.671Z,27.02
2019-03-20T13:24:00.261Z,26.88
2019-03-20T13:26:27.703Z,26.60
2019-03-20T13:28:55.339Z,26.99
2019-03-20T13:31:22.920Z,27.98
2019-03-20T13:33:50.563Z,27.53
2019-03-20T13:36:18.037Z,26.76
2019-03-20T13:38:45.591Z,27.28
2019-03-20T13:41:13.198Z,27.15
2019-03-20T13:43:40.716Z,26.59
2019-03-20T13:46:08.257Z,25.73
2019-03-20T13:48:35.811Z,25.19
2019-03-20T13:51:03.522Z,24.25
2019-03-20T13:53:31.363Z,22.66
2019-03-20T13:55:59.226Z,21.94
2019-03-20T13:58:27.025Z,21.16
2019-03-20T14:00:54.869Z,21.05
2019-03-20T14:03:22.641Z,20.73
2019-03-20T14:05:50.621Z,20.70
2019-03-20T14:08:18.504Z,20.57
2019-03-20T14:10:50.369Z,19.99
2019-03-20T14:13:15.860Z,19.83
2019-03-20T14:15:43.717Z,19.29
2019-03-20T14:18:11.456Z,19.55
2019-03-20T14:20:39.195Z,19.44
2019-03-20T14:23:07.018Z,19.75
2019-03-20T14:25:34.949Z,19.37
2019-03-20T14:28:02.739Z,19.15
2019-03-20T14:30:30.659Z,19.03
2019-03-20T14:33:02.699Z,18.84
2019-03-20T14:35:30.621Z,18.92
2019-03-20T14:38:00.625Z,18.69
2019-03-20T14:40:37.465Z,18.62
2019-03-20T14:43:00.817Z,18.85
2019-03-20T14:45:28.356Z,18.52
2019-03-20T14:47:56.170Z,18.47
2019-03-20T14:50:24.018Z,18.43
2019-03-20T14:52:51.831Z,18.06
2019-03-20T14:55:19.598Z,18.21
2019-03-20T14:57:47.505Z,18.35
2019-03-20T15:00:20.415Z,18.17
2019-03-20T15:02:48.346Z,18.25
2019-03-20T15:05:16.057Z,18.50
2019-03-20T15:07:44.178Z,18.43
2019-03-20T15:10:12.000Z,18.74
2019-03-20T15:12:39.965Z,18.80
2019-03-20T15:15:07.655Z,18.84
2019-03-20T15:17:35.292Z,19.02
2019-03-20T15:20:02.728Z,18.76
2019-03-20T15:22:30.523Z,19.01
2019-03-20T15:24:58.695Z,19.24
2019-03-20T15:27:26.560Z,19.26
2019-03-20T15:29:54.467Z,19.56
2019-03-20T15:32:22.286Z,19.09
2019-03-20T15:34:50.334Z,19.41
2019-03-20T15:37:18.163Z,19.21
2019-03-20T15:39:45.991Z,19.00
2019-03-20T15:42:13.799Z,18.39
2019-03-20T15:44:41.625Z,18.69
2019-03-20T15:47:09.408Z,18.63
2019-03-20T15:49:37.190Z,18.85
2019-03-20T15:52:04.939Z,19.17
2019-03-20T15:54:32.692Z,19.08
2019-03-20T15:57:00.499Z,19.01
2019-03-20T15:59:28.347Z,18.26
2019-03-20T16:01:56.004Z,18.27
2019-03-20T16:04:23.565Z,18.09
2019-03-20T16:06:51.008Z,17.69
2019-03-20T16:09:18.605Z,17.96
2019-03-20T16:11:46.192Z,16.73
2019-03-20T16:14:13.929Z,17.36
2019-03-20T16:16:41.481Z,17.44
2019-03-20T16:19:09.052Z,16.63
2019-03-20T16:21:36.602Z,16.61
2019-03-20T16:24:04.203Z,16.89
2019-03-20T16:26:31.711Z,16.47
2019-03-20T16:28:59.167Z,16.69
2019-03-20T16:31:26.754Z,16.59
2019-03-20T16:33:54.307Z,16.05
2019-03-20T16:36:22.181Z,16.27
2019-03-20T16:38:49.734Z,15.94
2019-03-20T16:41:17.323Z,15.79
2019-03-20T16:43:45.253Z,15.69
2019-03-20T16:46:12.779Z,15.61
2019-03-20T16:48:40.277Z,15.13
2019-03-20T16:51:07.750Z,15.27
2019-03-20T16:53:35.545Z,15.27
2019-03-20T16:56:03.905Z,15.27
2019-03-20T16:58:31.761Z,15.35
2019-03-20T17:00:59.581Z,15.28
2019-03-20T17:03:27.407Z,15.35
2019-03-20T17:05:55.327Z,15.46
2019-03-20T17:08:23.242Z,15.39
2019-03-20T17:10:50.958Z,15.42
2019-03-20T17:13:18.693Z,15.47
2019-03-20T17:15:46.531Z,15.43
2019-03-20T17:18:14.398Z,15.49
2019-03-20T17:20:42.277Z,15.55
2019-03-20T17:23:10.130Z,15.36
2019-03-20T17:25:38.058Z,15.54
2019-03-20T17:28:05.884Z,15.29
2019-03-20T17:30:33.748Z,15.43
2019-03-20T17:33:01.489Z,15.38
2019-03-20T17:35:29.387Z,15.36
2019-03-20T17:37:57.256Z,15.33
2019-03-20T17:40:25.001Z,15.48
2019-03-20T17:42:53.243Z,15.45
2019-03-20T17:45:21.168Z,15.52
2019-03-20T17:47:49.386Z,15.58
2019-03-20T17:50:17.321Z,15.56
2019-03-20T17:52:45.357Z,15.63
2019-03-20T17:55:13.256Z,15.56
2019-03-20T17:57:41.149Z,15.44
2019-03-20T18:00:08.974Z,15.52
2019-03-20T18:02:36.683Z,15.54
2019-03-20T18:05:04.538Z,15.55
2019-03-20T18:07:32.253Z,15.48
2019-03-20T18:10:00.306Z,15.41
2019-03-20T18:12:28.125Z,15.36
2019-03-20T18:14:55.967Z,15.00
2019-03-20T18:17:23.902Z,14.29
2019-03-20T18:19:52.374Z,14.43
2019-03-20T18:22:20.215Z,14.69
2019-03-20T18:24:48.016Z,14.54
2019-03-20T18:27:15.862Z,14.74
2019-03-20T18:29:43.607Z,14.78
2019-03-20T18:32:11.415Z,14.92
2019-03-20T18:34:39.278Z,14.84
2019-03-20T18:37:07.037Z,14.93
2019-03-20T18:39:34.915Z,15.10
2019-03-20T18:42:04.372Z,15.10
2019-03-20T18:44:32.188Z,15.00
2019-03-20T18:47:00.167Z,15.02
2019-03-20T18:49:27.913Z,15.06
2019-03-20T18:51:55.819Z,15.02
2019-03-20T18:54:23.655Z,14.91
2019-03-20T18:56:51.459Z,15.07
2019-03-20T18:59:19.375Z,15.01
2019-03-20T19:01:47.255Z,15.09
2019-03-20T19:04:15.128Z,15.13
2019-03-20T19:06:42.968Z,15.07
2019-03-20T19:09:12.111Z,14.97
2019-03-20T19:11:44.355Z,14.99
2019-03-20T19:14:20.609Z,15.05
2019-03-20T19:17:00.040Z,14.95
2019-03-20T19:19:31.642Z,14.90
2019-03-20T19:21:59.388Z,14.93
2019-03-20T19:24:26.810Z,15.04
2019-03-20T19:26:55.406Z,14.99
2019-03-20T19:29:31.357Z,14.89
2019-03-20T19:32:03.865Z,14.98
2019-03-20T19:34:35.699Z,15.00
2019-03-20T19:37:04.516Z,15.06
2019-03-20T19:39:34.461Z,15.05
2019-03-20T19:42:02.006Z,14.97
2019-03-20T19:44:29.543Z,14.93
2019-03-20T19:46:57.101Z,14.86
2019-03-20T19:49:24.560Z,14.81
2019-03-20T19:51:52.018Z,14.78
2019-03-20T19:54:19.786Z,14.78
2019-03-20T19:56:47.592Z,14.85
2019-03-20T19:59:15.704Z,14.85
2019-03-20T20:01:43.537Z,14.93
2019-03-20T20:04:11.407Z,14.87
2019-03-20T20:06:39.604Z,14.99
2019-03-20T20:09:07.384Z,14.88
2019-03-20T20:11:35.396Z,14.92
2019-03-20T20:14:03.208Z,14.85
2019-03-20T20:16:31.027Z,15.00
2019-03-20T20:18:58.754Z,14.89
2019-03-20T20:21:26.560Z,15.15
2019-03-20T20:23:55.738Z,15.00
2019-03-20T20:26:23.639Z,14.83
2019-03-20T20:28:51.384Z,14.92
2019-03-20T20:31:19.108Z,14.88
2019-03-20T20:33:46.928Z,15.16
2019-03-20T20:36:14.829Z,14.92
2019-03-20T20:38:42.677Z,14.77
2019-03-20T20:41:10.560Z,14.73
2019-03-20T20:43:39.850Z,14.94
2019-03-20T20:46:07.990Z,14.81
2019-03-20T20:48:35.803Z,14.68
2019-03-20T20:51:03.858Z,14.49
2019-03-20T20:53:31.600Z,14.79
2019-03-20T20:55:59.398Z,14.64
2019-03-20T20:58:27.163Z,14.35
2019-03-20T21:00:54.964Z,14.35
2019-03-20T21:03:22.795Z,13.80
2019-03-20T21:05:50.607Z,13.45
2019-03-20T21:08:18.432Z,13.23
2019-03-20T21:10:46.283Z,13.60
2019-03-20T21:13:14.413Z,13.86
2019-03-20T21:15:45.617Z,13.75
2019-03-20T21:18:15.974Z,13.55
2019-03-20T21:20:47.015Z,14.15
2019-03-20T21:23:18.358Z,13.90
2019-03-20T21:25:46.690Z,14.19
2019-03-20T21:28:18.106Z,14.27
2019-03-20T21:30:47.005Z,14.29
2019-03-20T21:33:15.056Z,14.17
2019-03-20T21:35:42.528Z,14.39
2019-03-20T21:38:11.496Z,14.36
2019-03-20T21:40:39.286Z,14.36
2019-03-20T21:43:07.579Z,14.39
2019-03-20T21:45:39.348Z,14.41
2019-03-20T21:48:07.417Z,14.48
2019-03-20T21:50:37.980Z,14.67
2019-03-20T21:53:05.480Z,14.62
2019-03-20T21:55:32.986Z,14.55
2019-03-20T21:58:00.530Z,14.38
2019-03-20T22:00:28.079Z,14.53
2019-03-20T22:02:55.629Z,14.52
2019-03-20T22:05:27.323Z,14.57
2019-03-20T22:07:56.263Z,14.53
2019-03-20T22:10:23.831Z,14.60
2019-03-20T22:12:51.380Z,14.75
2019-03-20T22:15:18.969Z,14.48
2019-03-20T22:17:50.801Z,14.40
2019-03-20T22:20:15.601Z,14.56
2019-03-20T22:22:43.959Z,14.58
2019-03-20T22:25:11.817Z,14.56
2019-03-20T22:27:39.604Z,14.52
2019-03-20T22:30:07.383Z,14.38
2019-03-20T22:32:35.275Z,14.22
2019-03-20T22:35:03.700Z,14.55
2019-03-20T22:37:34.781Z,14.45
2019-03-20T22:40:02.413Z,14.47
2019-03-20T22:42:34.479Z,14.58
2019-03-20T22:45:04.073Z,14.51
2019-03-20T22:47:33.697Z,14.53
2019-03-20T22:50:01.488Z,14.48
2019-03-20T22:52:29.400Z,14.49
2019-03-20T22:54:57.413Z,14.53
2019-03-20T22:57:25.199Z,14.49
2019-03-20T22:59:52.980Z,14.53
2019-03-20T23:02:20.818Z,14.52
2019-03-20T23:04:48.614Z,14.41
2019-03-20T23:07:16.325Z,14.45
2019-03-20T23:09:44.135Z,14.46
2019-03-20T23:12:11.887Z,14.45
2019-03-20T23:14:39.599Z,14.45
2019-03-20T23:17:07.585Z,14.46
2019-03-20T23:19:35.405Z,14.43
2019-03-20T23:22:03.201Z,14.49
2019-03-20T23:24:30.935Z,14.39
2019-03-20T23:26:58.664Z,14.44
2019-03-20T23:29:26.388Z,14.41
2019-03-20T23:31:54.120Z,14.15
2019-03-20T23:34:21.851Z,14.29
2019-03-20T23:36:49.624Z,14.19
2019-03-20T23:39:17.441Z,14.17
2019-03-20T23:41:45.209Z,14.22
2019-03-20T23:44:12.977Z,14.13
2019-03-20T23:46:40.840Z,14.12
2019-03-20T23:49:08.599Z,14.21
2019-03-20T23:51:36.472Z,14.26
2019-03-20T23:54:04.228Z,14.24
2019-03-20T23:56:32.055Z,14.23
2019-03-20T23:58:59.862Z,14.37
